Bremen, Georgia
Current Conditions -  °F | °C
As of 12:35 AM on Monday 22 Dec 2014 (Local Time) from KCTJ Reporting Station
Haze Haze  
Wind Chill: 46°   Ceiling: 600
Heat Index: 46°   Visibility: 4mi
Dew Point: 46°   Wind: 3mph
Humidity: 100%   Direction: 100°E
Pressure: 30.1"   Gusts: NA
Location:  33.72°N, 85.15°W
Report Text: KCTJ 220535Z AUTO 10003KT 4SM BR OVC006 08/08 A3010 RMK AO2
Loading
Personal Weather Stations






























Interactive Weather Map New forecast layout! Learn more

10-Day Weather Forecast

Advertisements
Track Severe Weather on mobile